Type Rating

Weitere Informationen folgen in Kürze ....

Flugwetter Augsburg

[source: ADDS]
METAR
EDMA 302120Z AUTO VRB02KT 9999 // NCD M04/M08 Q1024 =
TAF EDMA 301700Z 3018/3103 VRB03KT CAVOK
TAF
TAF EDMA 301700Z 3018/3103 VRB03KT CAVOK =
Cookies erleichtern die Bereitstellung unserer Dienste. Mit der Nutzung unserer Dienste erklären Sie sich damit einverstanden, dass wir Cookies verwenden.
Weitere Informationen Ok